createdAt,value
2023-02-06T00:01:11.009Z,2.28
2023-02-06T00:03:37.385Z,2.26
2023-02-06T00:06:03.915Z,2.24
2023-02-06T00:08:30.375Z,2.26
2023-02-06T00:10:56.742Z,2.24
2023-02-06T00:13:23.123Z,1.94
2023-02-06T00:15:49.560Z,1.89
2023-02-06T00:18:15.952Z,1.84
2023-02-06T00:20:42.363Z,1.77
2023-02-06T00:23:08.822Z,1.77
2023-02-06T00:25:35.457Z,1.78
2023-02-06T00:28:02.108Z,1.84
2023-02-06T00:30:28.640Z,1.79
2023-02-06T00:32:55.017Z,1.59
2023-02-06T00:35:21.451Z,1.65
2023-02-06T00:37:47.902Z,1.60
2023-02-06T00:40:14.250Z,1.57
2023-02-06T00:42:40.619Z,1.52
2023-02-06T00:45:07.798Z,1.37
2023-02-06T00:47:35.443Z,1.31
2023-02-06T00:50:02.327Z,1.31
2023-02-06T00:52:28.745Z,1.30
2023-02-06T00:54:55.094Z,1.32
2023-02-06T00:57:21.431Z,1.30
2023-02-06T00:59:47.848Z,1.24
2023-02-06T01:02:14.215Z,1.21
2023-02-06T01:04:40.567Z,1.11
2023-02-06T01:07:06.949Z,1.11
2023-02-06T01:09:33.307Z,1.14
2023-02-06T01:12:00.747Z,1.00
2023-02-06T01:14:27.139Z,1.06
2023-02-06T01:16:53.542Z,1.14
2023-02-06T01:19:19.961Z,1.11
2023-02-06T01:21:46.357Z,1.14
2023-02-06T01:24:12.712Z,1.14
2023-02-06T01:26:39.060Z,1.03
2023-02-06T01:29:05.466Z,0.97
2023-02-06T01:31:32.227Z,0.96
2023-02-06T01:34:00.250Z,0.87
2023-02-06T01:36:27.476Z,0.78
2023-02-06T01:38:54.107Z,0.60
2023-02-06T01:41:22.780Z,0.70
2023-02-06T01:44:12.838Z,0.71
2023-02-06T01:46:41.460Z,0.70
2023-02-06T01:49:13.499Z,0.63
2023-02-06T01:51:40.989Z,0.70
2023-02-06T01:54:09.943Z,0.71
2023-02-06T01:56:41.547Z,0.60
2023-02-06T01:59:08.293Z,0.68
2023-02-06T02:01:34.720Z,0.55
2023-02-06T02:04:06.401Z,0.46
2023-02-06T02:06:34.173Z,0.47
2023-02-06T02:09:02.519Z,0.49
2023-02-06T02:11:33.459Z,0.57
2023-02-06T02:14:02.024Z,0.64
2023-02-06T02:16:46.845Z,0.60
2023-02-06T02:19:32.072Z,0.59
2023-02-06T02:22:18.971Z,0.58
2023-02-06T02:24:56.301Z,0.52
2023-02-06T02:27:51.510Z,0.53
2023-02-06T02:30:39.909Z,0.48
2023-02-06T02:33:12.410Z,0.53
2023-02-06T02:36:06.033Z,0.55
2023-02-06T02:39:02.230Z,0.63
2023-02-06T02:41:31.574Z,0.65
2023-02-06T02:44:06.005Z,0.61
2023-02-06T02:46:42.562Z,0.74
2023-02-06T02:49:14.592Z,0.68
2023-02-06T02:51:42.156Z,0.68
2023-02-06T02:54:09.289Z,0.80
2023-02-06T02:56:36.022Z,0.81
2023-02-06T02:59:13.317Z,0.88
2023-02-06T03:01:46.870Z,0.94
2023-02-06T03:04:23.016Z,0.94
2023-02-06T03:07:37.434Z,0.97
2023-02-06T03:10:31.469Z,1.06
2023-02-06T03:13:11.035Z,1.11
2023-02-06T03:15:53.790Z,1.13
2023-02-06T03:18:29.501Z,1.09
2023-02-06T03:20:58.670Z,1.02
2023-02-06T03:23:30.996Z,1.12
2023-02-06T03:26:01.684Z,1.11
2023-02-06T03:28:33.139Z,1.11
2023-02-06T03:31:02.789Z,1.00
2023-02-06T03:33:35.050Z,0.86
2023-02-06T03:36:01.960Z,0.95
2023-02-06T03:38:28.434Z,1.02
2023-02-06T03:40:57.340Z,0.94
2023-02-06T03:43:26.529Z,0.61
2023-02-06T03:46:00.425Z,0.48
2023-02-06T03:48:34.780Z,0.46
2023-02-06T03:51:07.046Z,0.50
2023-02-06T03:53:36.063Z,0.41
2023-02-06T03:56:09.456Z,0.37
2023-02-06T03:58:36.025Z,0.33
2023-02-06T04:01:05.665Z,0.23
2023-02-06T04:03:32.758Z,0.22
2023-02-06T04:05:59.814Z,0.25
2023-02-06T04:08:26.139Z,0.28
2023-02-06T04:10:52.508Z,0.33
2023-02-06T04:13:18.864Z,0.40
2023-02-06T04:15:45.220Z,0.32
2023-02-06T04:18:11.548Z,0.23
2023-02-06T04:20:40.830Z,0.01
2023-02-06T04:23:08.606Z,-0.05
2023-02-06T04:25:35.902Z,-0.15
2023-02-06T04:28:02.497Z,-0.18
2023-02-06T04:30:28.940Z,-0.24
2023-02-06T04:32:55.366Z,-0.09
2023-02-06T04:35:21.774Z,-0.05
2023-02-06T04:37:48.205Z,-0.02
2023-02-06T04:40:14.563Z,0.00
2023-02-06T04:42:40.980Z,0.05
2023-02-06T04:45:07.917Z,-0.04
2023-02-06T04:47:34.273Z,-0.06
2023-02-06T04:50:00.671Z,-0.04
2023-02-06T04:52:27.082Z,-0.19
2023-02-06T04:54:53.463Z,-0.26
2023-02-06T04:57:20.558Z,-0.19
2023-02-06T04:59:46.916Z,-0.27
2023-02-06T05:02:13.296Z,-0.22
2023-02-06T05:04:39.670Z,-0.19
2023-02-06T05:07:06.468Z,-0.16
2023-02-06T05:09:32.864Z,-0.19
2023-02-06T05:11:59.252Z,-0.15
2023-02-06T05:14:25.768Z,-0.14
2023-02-06T05:16:52.174Z,-0.13
2023-02-06T05:19:18.505Z,-0.20
2023-02-06T05:21:44.859Z,-0.20
2023-02-06T05:24:11.749Z,-0.10
2023-02-06T05:26:38.382Z,-0.23
2023-02-06T05:29:04.810Z,-0.34
2023-02-06T05:31:31.218Z,-0.35
2023-02-06T05:33:57.659Z,-0.16
2023-02-06T05:36:24.397Z,-0.12
2023-02-06T05:38:50.894Z,-0.10
2023-02-06T05:41:17.857Z,-0.05
2023-02-06T05:43:44.830Z,-0.08
2023-02-06T05:46:12.818Z,-0.18
2023-02-06T05:48:39.639Z,-0.20
2023-02-06T05:51:06.332Z,-0.26
2023-02-06T05:53:32.781Z,-0.08
2023-02-06T05:55:59.156Z,-0.11
2023-02-06T05:58:25.652Z,-0.23
2023-02-06T06:00:52.436Z,-0.08
2023-02-06T06:03:19.201Z,0.03
2023-02-06T06:05:46.900Z,-0.01
2023-02-06T06:08:13.334Z,-0.07
2023-02-06T06:10:39.707Z,-0.06
2023-02-06T06:13:06.307Z,0.09
2023-02-06T06:15:32.704Z,0.15
2023-02-06T06:17:59.036Z,0.09
2023-02-06T06:20:25.486Z,0.17
2023-02-06T06:22:51.894Z,0.21
2023-02-06T06:25:18.477Z,0.19
2023-02-06T06:27:44.934Z,0.07
2023-02-06T06:30:11.678Z,0.06
2023-02-06T06:32:38.197Z,0.14
2023-02-06T06:35:04.869Z,0.17
2023-02-06T06:37:31.238Z,0.20
2023-02-06T06:39:58.182Z,0.21
2023-02-06T06:42:24.539Z,0.18
2023-02-06T06:44:50.917Z,0.37
2023-02-06T06:47:17.445Z,0.46
2023-02-06T06:49:43.839Z,0.53
2023-02-06T06:52:23.057Z,0.63
2023-02-06T06:54:52.325Z,0.66
2023-02-06T06:57:19.625Z,0.65
2023-02-06T06:59:45.986Z,0.59
2023-02-06T07:02:12.452Z,0.67
2023-02-06T07:04:38.824Z,0.69
2023-02-06T07:07:05.492Z,0.76
2023-02-06T07:09:31.842Z,0.74
2023-02-06T07:11:58.203Z,0.71
2023-02-06T07:14:24.780Z,0.66
2023-02-06T07:16:51.272Z,0.67
2023-02-06T07:19:17.801Z,0.68
2023-02-06T07:21:44.198Z,0.80
2023-02-06T07:24:10.595Z,0.74
2023-02-06T07:26:37.050Z,0.76
2023-02-06T07:29:03.662Z,0.84
2023-02-06T07:31:30.093Z,0.88
2023-02-06T07:33:56.470Z,0.96
2023-02-06T07:36:22.829Z,1.02
2023-02-06T07:38:49.405Z,1.06
2023-02-06T07:41:17.896Z,1.06
2023-02-06T07:43:44.495Z,1.01
2023-02-06T07:46:11.068Z,1.13
2023-02-06T07:48:37.679Z,1.15
2023-02-06T07:51:06.638Z,1.19
2023-02-06T07:53:34.283Z,1.13
2023-02-06T07:56:00.667Z,1.21
2023-02-06T07:58:27.207Z,1.24
2023-02-06T08:00:54.732Z,1.23
2023-02-06T08:03:21.208Z,1.35
2023-02-06T08:05:47.570Z,1.42
2023-02-06T08:08:13.948Z,1.31
2023-02-06T08:10:40.401Z,1.39
2023-02-06T08:13:07.807Z,1.50
2023-02-06T08:15:34.676Z,1.53
2023-02-06T08:18:01.322Z,1.54
2023-02-06T08:20:27.696Z,1.53
2023-02-06T08:22:54.466Z,1.51
2023-02-06T08:25:20.866Z,1.50
2023-02-06T08:27:47.362Z,1.60
2023-02-06T08:30:14.245Z,1.63
2023-02-06T08:32:40.633Z,1.70
2023-02-06T08:35:07.136Z,1.64
2023-02-06T08:37:33.482Z,1.63
2023-02-06T08:39:59.959Z,1.71
2023-02-06T08:42:26.349Z,1.54
2023-02-06T08:44:53.706Z,1.64
2023-02-06T08:47:20.064Z,1.77
2023-02-06T08:49:49.492Z,1.77
2023-02-06T08:52:15.873Z,1.76
2023-02-06T08:54:42.525Z,1.95
2023-02-06T08:57:09.717Z,1.98
2023-02-06T08:59:36.164Z,2.09
2023-02-06T09:02:02.512Z,2.26
2023-02-06T09:04:31.771Z,2.26
2023-02-06T09:06:58.141Z,2.35
2023-02-06T09:09:24.456Z,2.30
2023-02-06T09:11:51.114Z,2.32
2023-02-06T09:14:18.408Z,2.38
2023-02-06T09:16:45.031Z,2.42
2023-02-06T09:19:11.565Z,2.51
2023-02-06T09:21:38.455Z,2.46
2023-02-06T09:24:07.857Z,2.78
2023-02-06T09:26:40.578Z,2.92
2023-02-06T09:29:12.265Z,2.80
2023-02-06T09:31:40.844Z,2.88
2023-02-06T09:34:08.615Z,2.99
2023-02-06T09:36:36.680Z,3.01
2023-02-06T09:39:05.680Z,3.04
2023-02-06T09:41:46.131Z,3.01
2023-02-06T09:44:15.211Z,2.93
2023-02-06T09:46:51.195Z,2.94
2023-02-06T09:49:55.851Z,3.07
2023-02-06T09:52:51.571Z,3.07
2023-02-06T09:55:37.848Z,3.14
2023-02-06T09:58:22.250Z,3.28
2023-02-06T10:01:19.294Z,3.34
2023-02-06T10:04:19.579Z,3.35
2023-02-06T10:07:03.184Z,3.38
2023-02-06T10:09:53.910Z,3.52
2023-02-06T10:12:28.557Z,3.62
2023-02-06T10:15:01.556Z,3.57
2023-02-06T10:17:39.011Z,3.69
2023-02-06T10:20:18.879Z,3.68
2023-02-06T10:22:54.379Z,3.69
2023-02-06T10:25:27.217Z,3.73
2023-02-06T10:27:57.791Z,3.85
2023-02-06T10:30:51.012Z,4.24
2023-02-06T10:33:39.356Z,4.34
2023-02-06T10:36:17.704Z,4.47
2023-02-06T10:39:07.694Z,4.59
2023-02-06T10:41:43.554Z,4.68
2023-02-06T10:44:36.331Z,4.82
2023-02-06T10:47:12.845Z,5.27
2023-02-06T10:49:47.920Z,5.39
2023-02-06T10:52:27.586Z,5.39
2023-02-06T10:54:57.580Z,5.28
2023-02-06T10:57:28.523Z,5.14
2023-02-06T10:59:59.361Z,5.15
2023-02-06T11:03:06.515Z,4.68
2023-02-06T11:05:34.188Z,4.87
2023-02-06T11:08:13.856Z,5.11
2023-02-06T11:10:40.917Z,5.03
2023-02-06T11:13:12.632Z,5.46
2023-02-06T11:16:09.243Z,6.36
2023-02-06T11:18:41.033Z,5.93
2023-02-06T11:21:09.310Z,5.90
2023-02-06T11:23:35.928Z,6.13
2023-02-06T11:26:14.006Z,5.73
2023-02-06T11:28:52.364Z,5.44
2023-02-06T11:31:21.389Z,4.88
2023-02-06T11:33:51.128Z,5.01
2023-02-06T11:36:31.105Z,5.01
2023-02-06T11:39:27.455Z,5.23
2023-02-06T11:41:57.497Z,5.71
2023-02-06T11:44:29.028Z,6.55
2023-02-06T11:46:56.926Z,7.62
2023-02-06T11:49:29.081Z,8.55
2023-02-06T11:52:00.676Z,7.79
2023-02-06T11:57:23.127Z,6.25
2023-02-06T11:59:52.656Z,7.43
2023-02-06T12:02:30.606Z,9.31
2023-02-06T12:05:02.993Z,9.83
2023-02-06T12:07:43.268Z,8.64
2023-02-06T12:10:14.241Z,7.95
2023-02-06T12:12:45.583Z,7.48
2023-02-06T12:15:44.860Z,6.68
2023-02-06T12:18:19.535Z,6.71
2023-02-06T12:20:56.035Z,6.57
2023-02-06T12:23:43.934Z,6.34
2023-02-06T12:26:16.736Z,6.18
2023-02-06T12:29:04.416Z,5.92
2023-02-06T12:31:54.839Z,5.79
2023-02-06T12:34:44.293Z,5.95
2023-02-06T12:37:26.205Z,5.80
2023-02-06T12:39:53.133Z,5.39
2023-02-06T12:42:36.315Z,5.32
2023-02-06T12:45:16.823Z,5.67
2023-02-06T12:47:46.393Z,5.67
2023-02-06T12:50:29.611Z,5.60
2023-02-06T12:53:10.369Z,5.48
2023-02-06T12:55:39.241Z,5.32
2023-02-06T12:58:22.784Z,5.31
2023-02-06T13:01:14.386Z,5.46
2023-02-06T13:03:55.777Z,5.32
2023-02-06T13:06:32.482Z,5.42
2023-02-06T13:09:06.302Z,5.46
2023-02-06T13:11:35.851Z,5.26
2023-02-06T13:14:04.520Z,5.23
2023-02-06T13:16:39.665Z,5.24
2023-02-06T13:19:06.029Z,5.17
2023-02-06T13:21:35.072Z,5.38
2023-02-06T13:24:01.364Z,5.48
2023-02-06T13:26:56.246Z,5.48
2023-02-06T13:29:27.085Z,5.73
2023-02-06T13:32:20.247Z,5.64
2023-02-06T13:34:50.381Z,5.60
2023-02-06T13:37:51.204Z,5.63
2023-02-06T13:40:23.880Z,5.78
2023-02-06T13:43:21.241Z,5.82
2023-02-06T13:46:01.841Z,5.72
2023-02-06T13:48:28.196Z,5.54
2023-02-06T13:51:24.013Z,5.66
2023-02-06T13:53:59.180Z,5.64
2023-02-06T13:56:59.731Z,5.71
2023-02-06T13:59:35.190Z,5.66
2023-02-06T14:02:13.263Z,5.73
2023-02-06T14:04:40.055Z,5.96
2023-02-06T14:07:23.104Z,5.94
2023-02-06T14:10:26.508Z,5.86
2023-02-06T14:13:12.133Z,5.90
2023-02-06T14:16:16.484Z,5.91
2023-02-06T14:19:01.054Z,6.02
2023-02-06T14:21:47.840Z,6.07
2023-02-06T14:24:38.045Z,6.21
2023-02-06T14:27:46.045Z,6.10
2023-02-06T14:30:44.052Z,6.01
2023-02-06T14:33:32.253Z,5.99
2023-02-06T14:36:12.836Z,5.80
2023-02-06T14:38:57.925Z,5.75
2023-02-06T14:41:29.042Z,5.78
2023-02-06T14:43:55.744Z,5.73
2023-02-06T14:46:22.291Z,5.67
2023-02-06T14:48:58.051Z,5.62
2023-02-06T14:51:33.902Z,5.54
2023-02-06T14:54:03.969Z,5.53
2023-02-06T14:56:36.590Z,5.60
2023-02-06T14:59:18.125Z,5.64
2023-02-06T15:01:47.798Z,5.59
2023-02-06T15:04:23.966Z,5.53
2023-02-06T15:06:56.533Z,5.48
2023-02-06T15:09:30.360Z,5.48
2023-02-06T15:12:00.134Z,5.53
2023-02-06T15:14:30.411Z,5.66
2023-02-06T15:16:59.225Z,5.68
2023-02-06T15:19:28.195Z,5.59
2023-02-06T15:22:00.562Z,5.55
2023-02-06T15:24:36.383Z,5.52
2023-02-06T15:27:27.637Z,5.51
2023-02-06T15:29:55.341Z,5.50
2023-02-06T15:32:27.320Z,5.47
2023-02-06T15:34:53.833Z,5.42
2023-02-06T15:37:29.705Z,5.38
2023-02-06T15:40:04.797Z,5.42
2023-02-06T15:42:31.385Z,5.43
2023-02-06T15:44:58.173Z,5.42
2023-02-06T15:47:24.877Z,5.46
2023-02-06T15:49:51.794Z,5.51
2023-02-06T15:52:36.724Z,5.49
2023-02-06T15:55:03.428Z,5.49
2023-02-06T15:57:40.784Z,5.41
2023-02-06T16:00:23.385Z,5.39
2023-02-06T16:02:51.239Z,5.35
2023-02-06T16:05:30.357Z,5.35
2023-02-06T16:07:57.428Z,5.34
2023-02-06T16:10:29.816Z,5.33
2023-02-06T16:12:59.896Z,5.29
2023-02-06T16:15:32.347Z,5.26
2023-02-06T16:18:00.742Z,5.28
2023-02-06T16:20:36.851Z,5.27
2023-02-06T16:23:18.424Z,5.31
2023-02-06T16:25:46.718Z,5.32
2023-02-06T16:28:22.903Z,5.25
2023-02-06T16:30:59.076Z,5.23
2023-02-06T16:33:37.225Z,5.27
2023-02-06T16:36:04.083Z,5.26
2023-02-06T16:38:30.539Z,5.23
2023-02-06T16:40:57.380Z,5.11
2023-02-06T16:43:26.505Z,5.06
2023-02-06T16:45:52.957Z,5.09
2023-02-06T16:48:19.318Z,5.05
2023-02-06T16:50:48.107Z,5.00
2023-02-06T16:53:24.419Z,4.94
2023-02-06T16:55:51.578Z,4.82
2023-02-06T16:58:20.978Z,4.70
2023-02-06T17:00:48.019Z,4.63
2023-02-06T17:03:17.215Z,4.46
2023-02-06T17:05:48.892Z,4.39
2023-02-06T17:08:15.274Z,4.34
2023-02-06T17:10:41.654Z,4.28
2023-02-06T17:13:13.833Z,4.18
2023-02-06T17:15:40.303Z,4.09
2023-02-06T17:18:06.640Z,3.99
2023-02-06T17:20:37.034Z,3.93
2023-02-06T17:23:04.508Z,3.94
2023-02-06T17:25:31.406Z,4.00
2023-02-06T17:27:58.205Z,4.03
2023-02-06T17:30:26.049Z,4.07
2023-02-06T17:32:52.553Z,4.11
2023-02-06T17:35:19.452Z,4.08
2023-02-06T17:37:45.931Z,3.96
2023-02-06T17:40:19.663Z,4.00
2023-02-06T17:42:46.061Z,4.00
2023-02-06T17:45:12.536Z,3.93
2023-02-06T17:47:38.834Z,3.92
2023-02-06T17:50:05.466Z,3.91
2023-02-06T17:52:31.782Z,3.94
2023-02-06T17:54:58.119Z,4.04
2023-02-06T17:57:24.474Z,4.11
2023-02-06T17:59:54.026Z,4.18
2023-02-06T18:02:20.473Z,4.22
2023-02-06T18:04:50.757Z,4.24
2023-02-06T18:07:17.146Z,4.32
2023-02-06T18:09:43.534Z,4.36
2023-02-06T18:12:10.444Z,4.42
2023-02-06T18:14:36.840Z,4.44
2023-02-06T18:17:03.580Z,4.46
2023-02-06T18:19:30.468Z,4.46
2023-02-06T18:21:57.088Z,4.46
2023-02-06T18:24:23.400Z,4.44
2023-02-06T18:26:49.749Z,4.42
2023-02-06T18:29:16.092Z,4.38
2023-02-06T18:31:42.442Z,4.35
2023-02-06T18:34:08.887Z,4.26
2023-02-06T18:36:36.692Z,4.17
2023-02-06T18:39:04.760Z,4.08
2023-02-06T18:41:49.552Z,3.98
2023-02-06T18:44:16.203Z,3.87
2023-02-06T18:46:42.677Z,3.69
2023-02-06T18:49:09.171Z,3.30
2023-02-06T18:51:35.526Z,3.18
2023-02-06T18:54:02.133Z,3.05
2023-02-06T18:56:28.749Z,3.10
2023-02-06T18:58:55.111Z,3.05
2023-02-06T19:01:23.890Z,3.14
2023-02-06T19:03:52.137Z,3.06
2023-02-06T19:06:20.539Z,3.04
2023-02-06T19:08:47.198Z,3.09
2023-02-06T19:11:14.016Z,3.11
2023-02-06T19:13:40.728Z,3.10
2023-02-06T19:16:12.032Z,3.11
2023-02-06T19:18:42.082Z,3.03
2023-02-06T19:21:11.455Z,3.06
2023-02-06T19:23:39.392Z,3.11
2023-02-06T19:26:08.306Z,3.17
2023-02-06T19:28:36.640Z,3.16
2023-02-06T19:31:04.480Z,3.14
2023-02-06T19:33:33.462Z,3.27
2023-02-06T19:36:04.820Z,3.23
2023-02-06T19:38:31.119Z,3.25
2023-02-06T19:41:04.990Z,3.18
2023-02-06T19:43:31.285Z,3.17
2023-02-06T19:46:02.354Z,3.12
2023-02-06T19:48:28.788Z,2.97
2023-02-06T19:50:55.180Z,2.87
2023-02-06T19:53:21.556Z,2.60
2023-02-06T19:55:48.862Z,2.45
2023-02-06T19:58:15.242Z,2.35
2023-02-06T20:00:41.626Z,2.25
2023-02-06T20:03:08.013Z,2.23
2023-02-06T20:05:34.461Z,2.11
2023-02-06T20:08:00.856Z,2.11
2023-02-06T20:10:27.275Z,1.98
2023-02-06T20:12:54.682Z,1.87
2023-02-06T20:15:21.012Z,1.93
2023-02-06T20:17:47.312Z,1.72
2023-02-06T20:20:13.957Z,1.61
2023-02-06T20:22:40.488Z,1.66
2023-02-06T20:25:07.306Z,1.62
2023-02-06T20:27:33.853Z,1.64
2023-02-06T20:30:00.219Z,1.54
2023-02-06T20:32:26.556Z,1.36
2023-02-06T20:34:52.855Z,1.26
2023-02-06T20:37:19.256Z,1.27
2023-02-06T20:39:45.638Z,1.31
2023-02-06T20:42:11.970Z,1.26
2023-02-06T20:44:38.787Z,1.21
2023-02-06T20:47:05.238Z,1.12
2023-02-06T20:49:31.695Z,1.25
2023-02-06T20:51:58.198Z,1.23
2023-02-06T20:54:24.977Z,1.21
2023-02-06T20:56:51.922Z,1.21
2023-02-06T20:59:20.010Z,1.12
2023-02-06T21:01:46.556Z,0.97
2023-02-06T21:04:14.679Z,0.98
2023-02-06T21:06:41.456Z,0.98
2023-02-06T21:09:09.005Z,0.86
2023-02-06T21:11:39.984Z,0.75
2023-02-06T21:14:07.250Z,0.80
2023-02-06T21:16:35.138Z,0.75
2023-02-06T21:19:02.263Z,0.76
2023-02-06T21:21:28.868Z,0.64
2023-02-06T21:23:58.215Z,0.61
2023-02-06T21:26:25.899Z,0.54
2023-02-06T21:28:52.684Z,0.62
2023-02-06T21:31:24.781Z,0.71
2023-02-06T21:33:52.371Z,0.55
2023-02-06T21:36:20.915Z,0.73
2023-02-06T21:38:47.325Z,0.77
2023-02-06T21:41:18.749Z,0.73
2023-02-06T21:43:45.797Z,0.54
2023-02-06T21:46:13.127Z,0.39
2023-02-06T21:48:40.496Z,0.32
2023-02-06T21:51:15.734Z,0.22
2023-02-06T21:53:42.955Z,0.18
2023-02-06T21:56:17.420Z,0.26
2023-02-06T21:58:44.570Z,0.23
2023-02-06T22:01:19.623Z,0.22
2023-02-06T22:03:47.218Z,0.28
2023-02-06T22:06:14.111Z,0.32
2023-02-06T22:08:43.757Z,0.19
2023-02-06T22:11:19.187Z,0.06
2023-02-06T22:13:46.425Z,0.15
2023-02-06T22:16:14.875Z,0.13
2023-02-06T22:18:41.624Z,0.12
2023-02-06T22:21:15.213Z,0.04
2023-02-06T22:23:43.230Z,0.08
2023-02-06T22:26:12.415Z,0.05
2023-02-06T22:28:38.853Z,0.03
2023-02-06T22:31:10.532Z,0.00
2023-02-06T22:33:37.336Z,0.03
2023-02-06T22:36:09.215Z,-0.10
2023-02-06T22:38:35.790Z,-0.31
2023-02-06T22:41:07.898Z,-0.27
2023-02-06T22:43:36.413Z,-0.28
2023-02-06T22:46:03.899Z,-0.19
2023-02-06T22:48:30.394Z,-0.27
2023-02-06T22:50:57.170Z,-0.17
2023-02-06T22:53:29.777Z,-0.10
2023-02-06T22:56:24.015Z,-0.15
2023-02-06T22:58:51.372Z,-0.26
2023-02-06T23:01:20.549Z,-0.24
2023-02-06T23:03:47.857Z,-0.23
2023-02-06T23:06:15.671Z,-0.04
2023-02-06T23:08:43.275Z,0.01
2023-02-06T23:11:10.790Z,-0.27
2023-02-06T23:13:37.280Z,-0.19
2023-02-06T23:16:04.262Z,-0.13
2023-02-06T23:18:31.673Z,-0.41
2023-02-06T23:21:10.821Z,-0.34
2023-02-06T23:23:37.831Z,-0.39
2023-02-06T23:26:10.122Z,-0.47
2023-02-06T23:28:37.503Z,-0.56
2023-02-06T23:31:05.607Z,-0.45
2023-02-06T23:33:32.309Z,-0.41
2023-02-06T23:36:07.216Z,-0.44
2023-02-06T23:38:33.876Z,-0.43
2023-02-06T23:41:08.852Z,-0.64
2023-02-06T23:43:35.801Z,-0.56
2023-02-06T23:46:02.940Z,-0.64
2023-02-06T23:48:29.411Z,-0.54
2023-02-06T23:50:55.846Z,-0.53
2023-02-06T23:53:22.270Z,-0.64
2023-02-06T23:55:48.729Z,-0.58
2023-02-06T23:58:15.161Z,-0.59
